Главная страница
METAR-TAF:

METAR-TAF

Аэропорты :

Уотсон-Лейк, Юкон, Канада

широта: 60-07N, долгота: 128-49W, высота над уровнем моря: 690 м

Текущие метеонаблюдения

Эта сводка был подготовлена 17 минут назад, в 12:00 UTC
Ветер 2 Узел переменных направлений
Температура 10°C
Влажность 71%
Давление 1019 hPa
Видимость: 48.3 км
небольшая облачность на высоте 9000 фута

METAR: CYQH 191200Z VRB02KT 30SM FEW090 10/05 A3008 RMK AC2 CLIMAT SLP191

Время: 05:17 (12:17 UTC)

Прогноз

Эта сводка был подготовлена 39 минут назад, в 11:38 UTC
Прогноз действительный с 19-го 12 UTC до 19-го 24 UTC
Ветер 3 Узел переменных направлений
Видимость: 10 км
Отдельные облака на высоте 10000 фута
С 19-го 1800 UTC
Ветер 10 Узел от западный с порывами до 20 Узел
Видимость: 10 км
ясное небо

TAF: CYQH 191138Z 1912/1924 VRB03KT P6SM SCT100 FM191800 26010G20KT P6SM SKC RMK NXT FCST BY 191800Z

Метеонаблюдения и прогнозы для более 4000 аэропортов (сводки METAR и TAF).

Имеющиеся станции представлены на карте желтыми и красными точками.

Чтобы увидеть название станции, наведите на нее мышь.

Затем щелкните, чтобы увидеть метеонаблюдения и метеопрогнозы.

Управление картой: чтобы увеличить масштаб, щелкните зеленые кнопки с черным крестиком; чтобы уменьшить масштаб, щелкните зеленую кнопку с тире; для просмотра соседних карт щелкайте зеленые стрелки.


METAR-TAF: